Details for Lufthansa at EDDL




Go Back


Latest METAR
Local Time

EDDL 232350Z 04006KT CAVOK M02/M10 Q1022 NOSIG

24/02/2018, 01:08:06

Description
Results
Lufthansa Logo
Number of Pilots based at EDDL
0 Pilots Based here
Number of Lufthansa Flights Departed from EDDL
0 Flights Departed
Number of Lufthansa Flights Arrived at EDDL
0 Flights Arrived
Number of Lufthansa Schedules Departing from EDDL
19 Schedules
Number of Lufthansa Schedules Arriving at EDDL
20 Schedules
Number of Lufthansa Schedules Departing from EDDL availible today
14 Schedules Today
Number of Lufthansa Schedules Arriving at EDDL availible today
14 Schedules Today
Average Landing Rate at EDDL
-199 fpm
Lufthansa Average Landing Rate at EDDL
0 fpm
Total Fuel Purchased at EDDL by Lufthansa
0.00 kgs / 0.00 lbs

Pilots Based at EDDL


Pilot ID
Pilot Name
Pilot Rank
No. of Flights
No. of Flying Hours
There are no pilots assigned to this hub!   Will you be the first?
Content